HAZ1137 ZUUU-ZSHC
Flight info
| Callsign | HAZ1137 |
|---|---|
| Flight time | 2h 4m |
| Altitude | 37100 |
| Route | UBRAB B213 ESPEG DCT OLPOV B213 WHA R343 UPLEL W95 SAPIN A470 IGRAT |
| Aircraft | B738/M-SDE2E3FGHIRWXY/LB1 |
Departure
| Time | 2026-05-05 06:52 |
|---|---|
| Airport | Chengdu Shuangliu International Airport (ZUUU) |
Arrival
| Time | 2026-05-05 08:56 |
|---|---|
| Airport | Hangzhou Xiaoshan International Airport (ZSHC) |
| Time | Latitude | Longitude | Altitude | Speed | Heading |
|---|---|---|---|---|---|
| 2026-05-05 06:31 | 30.56928 | 103.94984 | 1689 ft | 0 kts | 21° |
| 2026-05-05 06:44 | 30.56927 | 103.94984 | 1689 ft | 0 kts | 22° |
| 2026-05-05 06:44 | 30.56914 | 103.94978 | 1689 ft | 2 kts | 21° |
| 2026-05-05 06:44 | 30.56900 | 103.94971 | 1689 ft | 2 kts | 21° |
| 2026-05-05 06:45 | 30.56886 | 103.94965 | 1689 ft | 2 kts | 21° |
| 2026-05-05 06:45 | 30.56877 | 103.94961 | 1689 ft | 2 kts | 12° |
| 2026-05-05 06:45 | 30.56863 | 103.94964 | 1689 ft | 2 kts | 326° |
| 2026-05-05 06:45 | 30.56855 | 103.94973 | 1689 ft | 0 kts | 296° |
| 2026-05-05 06:46 | 30.56853 | 103.94981 | 1689 ft | 1 kts | 291° |
| 2026-05-05 06:48 | 30.56862 | 103.94955 | 1689 ft | 8 kts | 292° |
| 2026-05-05 06:48 | 30.56888 | 103.94879 | 1689 ft | 10 kts | 291° |
| 2026-05-05 06:48 | 30.56919 | 103.94788 | 1689 ft | 14 kts | 291° |
| 2026-05-05 06:48 | 30.56962 | 103.94672 | 1689 ft | 17 kts | 289° |
| 2026-05-05 06:49 | 30.56903 | 103.94582 | 1689 ft | 17 kts | 200° |
| 2026-05-05 06:49 | 30.56857 | 103.94472 | 1689 ft | 17 kts | 249° |
| 2026-05-05 06:49 | 30.56745 | 103.94398 | 1689 ft | 20 kts | 201° |
| 2026-05-05 06:49 | 30.56601 | 103.94332 | 1689 ft | 24 kts | 201° |
| 2026-05-05 06:50 | 30.56429 | 103.94259 | 1689 ft | 28 kts | 198° |
| 2026-05-05 06:50 | 30.56310 | 103.94146 | 1689 ft | 16 kts | 272° |
| 2026-05-05 06:50 | 30.56350 | 103.94035 | 1689 ft | 14 kts | 317° |
| 2026-05-05 06:50 | 30.56442 | 103.94043 | 1689 ft | 15 kts | 21° |
| 2026-05-05 06:51 | 30.56668 | 103.94149 | 1689 ft | 65 kts | 21° |
| 2026-05-05 06:51 | 30.57275 | 103.94431 | 1689 ft | 121 kts | 22° |
| 2026-05-05 06:51 | 30.58217 | 103.94865 | 1692 ft | 167 kts | 22° |
| 2026-05-05 06:51 | 30.59378 | 103.95373 | 1876 ft | 191 kts | 22° |
| 2026-05-05 06:52 | 30.60691 | 103.95979 | 2323 ft | 204 kts | 24° |
| 2026-05-05 06:52 | 30.61996 | 103.96616 | 2957 ft | 213 kts | 24° |
| 2026-05-05 06:52 | 30.63412 | 103.97292 | 3478 ft | 226 kts | 23° |
| 2026-05-05 06:52 | 30.64927 | 103.97998 | 3951 ft | 240 kts | 23° |
| 2026-05-05 06:53 | 30.66513 | 103.98733 | 4401 ft | 255 kts | 23° |
| 2026-05-05 06:53 | 30.68195 | 103.99532 | 4851 ft | 269 kts | 27° |
| 2026-05-05 06:53 | 30.69681 | 104.00886 | 5378 ft | 276 kts | 55° |
| 2026-05-05 06:53 | 30.70650 | 104.02805 | 6058 ft | 278 kts | 65° |
| 2026-05-05 06:54 | 30.71471 | 104.04839 | 6741 ft | 282 kts | 66° |
| 2026-05-05 06:54 | 30.72320 | 104.06894 | 7391 ft | 288 kts | 65° |
| 2026-05-05 06:54 | 30.73229 | 104.08971 | 8037 ft | 293 kts | 64° |
| 2026-05-05 06:54 | 30.74188 | 104.11075 | 8697 ft | 297 kts | 63° |
| 2026-05-05 06:55 | 30.75175 | 104.13210 | 9372 ft | 301 kts | 63° |
| 2026-05-05 06:55 | 30.76255 | 104.15307 | 9945 ft | 308 kts | 52° |
| 2026-05-05 06:55 | 30.77900 | 104.16902 | 10414 ft | 319 kts | 27° |
| 2026-05-05 06:55 | 30.80017 | 104.17863 | 10758 ft | 333 kts | 17° |
| 2026-05-05 06:56 | 30.82318 | 104.18642 | 11097 ft | 348 kts | 15° |
| 2026-05-05 06:56 | 30.84674 | 104.19415 | 11429 ft | 363 kts | 15° |
| 2026-05-05 06:56 | 30.87148 | 104.20264 | 11719 ft | 378 kts | 16° |
| 2026-05-05 06:56 | 30.89728 | 104.21192 | 12040 ft | 391 kts | 17° |
| 2026-05-05 06:57 | 30.92355 | 104.22166 | 12465 ft | 400 kts | 17° |
| 2026-05-05 06:57 | 30.95014 | 104.23167 | 13040 ft | 404 kts | 17° |
| 2026-05-05 06:57 | 30.97679 | 104.24206 | 13643 ft | 407 kts | 20° |
| 2026-05-05 06:57 | 31.00152 | 104.25774 | 14270 ft | 409 kts | 36° |
| 2026-05-05 06:58 | 31.02188 | 104.28062 | 14987 ft | 409 kts | 51° |
| 2026-05-05 06:58 | 31.03725 | 104.30836 | 15585 ft | 412 kts | 63° |
| 2026-05-05 06:58 | 31.04835 | 104.33922 | 16130 ft | 417 kts | 71° |
| 2026-05-05 06:58 | 31.05458 | 104.37250 | 16746 ft | 419 kts | 85° |
| 2026-05-05 06:59 | 31.05516 | 104.40630 | 17332 ft | 421 kts | 91° |
| 2026-05-05 06:59 | 31.05365 | 104.44052 | 17784 ft | 428 kts | 94° |
| 2026-05-05 06:59 | 31.05131 | 104.47532 | 18306 ft | 432 kts | 94° |
| 2026-05-05 06:59 | 31.04880 | 104.51012 | 18807 ft | 437 kts | 94° |
| 2026-05-05 07:00 | 31.04635 | 104.54551 | 19352 ft | 440 kts | 93° |
| 2026-05-05 07:00 | 31.04406 | 104.58109 | 19808 ft | 445 kts | 93° |
| 2026-05-05 07:00 | 31.04190 | 104.61709 | 20286 ft | 450 kts | 92° |
| 2026-05-05 07:00 | 31.03980 | 104.65343 | 20839 ft | 452 kts | 93° |
| 2026-05-05 07:01 | 31.03777 | 104.68986 | 21283 ft | 456 kts | 92° |
| 2026-05-05 07:01 | 31.03574 | 104.72671 | 21782 ft | 459 kts | 92° |
| 2026-05-05 07:01 | 31.03369 | 104.76417 | 22232 ft | 463 kts | 92° |
| 2026-05-05 07:01 | 31.03165 | 104.80165 | 22678 ft | 467 kts | 92° |
| 2026-05-05 07:02 | 31.02958 | 104.83961 | 23176 ft | 470 kts | 92° |
| 2026-05-05 07:02 | 31.02750 | 104.87749 | 23624 ft | 473 kts | 92° |
| 2026-05-05 07:02 | 31.02483 | 104.91574 | 24046 ft | 478 kts | 95° |
| 2026-05-05 07:02 | 31.01948 | 104.95419 | 24450 ft | 483 kts | 100° |
| 2026-05-05 07:03 | 31.01091 | 104.99176 | 24944 ft | 486 kts | 106° |
| 2026-05-05 07:03 | 30.99934 | 105.02917 | 25375 ft | 490 kts | 110° |
| 2026-05-05 07:03 | 30.98607 | 105.06582 | 25738 ft | 494 kts | 112° |
| 2026-05-05 07:03 | 30.97186 | 105.10205 | 26160 ft | 497 kts | 114° |
| 2026-05-05 07:04 | 30.95703 | 105.13856 | 26611 ft | 499 kts | 114° |
| 2026-05-05 07:04 | 30.94224 | 105.17450 | 26984 ft | 502 kts | 114° |
| 2026-05-05 07:04 | 30.93712 | 105.18695 | 27095 ft | 504 kts | 114° |
| 2026-05-05 07:04 | 30.92866 | 105.20753 | 27294 ft | 506 kts | 114° |
| 2026-05-05 07:05 | 30.91353 | 105.24448 | 27691 ft | 508 kts | 114° |
| 2026-05-05 07:05 | 30.90043 | 105.27664 | 28144 ft | 507 kts | 114° |
| 2026-05-05 07:05 | 30.89175 | 105.29805 | 28480 ft | 506 kts | 113° |
| 2026-05-05 07:06 | 30.87776 | 105.33530 | 29090 ft | 502 kts | 110° |
| 2026-05-05 07:06 | 30.86912 | 105.36356 | 29551 ft | 497 kts | 104° |
| 2026-05-05 07:06 | 30.86504 | 105.38133 | 29833 ft | 494 kts | 100° |
| 2026-05-05 07:06 | 30.85961 | 105.41791 | 30283 ft | 491 kts | 93° |
| 2026-05-05 07:07 | 30.85713 | 105.45744 | 30584 ft | 492 kts | 87° |
| 2026-05-05 07:07 | 30.85803 | 105.49681 | 30916 ft | 491 kts | 81° |
| 2026-05-05 07:07 | 30.86237 | 105.53656 | 31305 ft | 488 kts | 75° |
| 2026-05-05 07:07 | 30.86943 | 105.57444 | 31767 ft | 484 kts | 71° |
| 2026-05-05 07:08 | 30.87824 | 105.61253 | 32211 ft | 482 kts | 69° |
| 2026-05-05 07:08 | 30.88749 | 105.64966 | 32719 ft | 478 kts | 68° |
| 2026-05-05 07:08 | 30.89676 | 105.68666 | 33196 ft | 476 kts | 69° |
| 2026-05-05 07:08 | 30.90588 | 105.72405 | 33673 ft | 474 kts | 69° |
| 2026-05-05 07:09 | 30.91457 | 105.76098 | 34001 ft | 476 kts | 70° |
| 2026-05-05 07:09 | 30.92314 | 105.79871 | 34269 ft | 478 kts | 70° |
| 2026-05-05 07:09 | 30.93135 | 105.83595 | 34652 ft | 478 kts | 70° |
| 2026-05-05 07:09 | 30.93937 | 105.87318 | 35012 ft | 478 kts | 70° |
| 2026-05-05 07:10 | 30.94735 | 105.91069 | 35282 ft | 479 kts | 70° |
| 2026-05-05 07:10 | 30.95526 | 105.94851 | 35624 ft | 479 kts | 71° |
| 2026-05-05 07:10 | 30.96165 | 105.98619 | 35997 ft | 481 kts | 75° |
| 2026-05-05 07:10 | 30.96550 | 106.02522 | 36290 ft | 485 kts | 81° |
| 2026-05-05 07:11 | 30.96651 | 106.06422 | 36513 ft | 490 kts | 85° |
| 2026-05-05 07:11 | 30.96553 | 106.10424 | 36732 ft | 493 kts | 87° |
| 2026-05-05 07:11 | 30.96369 | 106.14356 | 36910 ft | 495 kts | 88° |
| 2026-05-05 07:12 | 30.95924 | 106.22348 | 36905 ft | 496 kts | 89° |
| 2026-05-05 07:12 | 30.95477 | 106.30352 | 36913 ft | 494 kts | 88° |
| 2026-05-05 07:13 | 30.95058 | 106.38329 | 36911 ft | 494 kts | 88° |
| 2026-05-05 07:13 | 30.94659 | 106.46282 | 36911 ft | 493 kts | 88° |
| 2026-05-05 07:14 | 30.94267 | 106.54213 | 36920 ft | 492 kts | 88° |
| 2026-05-05 07:14 | 30.93873 | 106.62171 | 36917 ft | 493 kts | 88° |
| 2026-05-05 07:15 | 30.93477 | 106.70087 | 36910 ft | 492 kts | 88° |
| 2026-05-05 07:15 | 30.93077 | 106.78034 | 36910 ft | 493 kts | 88° |
| 2026-05-05 07:16 | 30.92675 | 106.85939 | 36928 ft | 494 kts | 88° |
| 2026-05-05 07:16 | 30.92263 | 106.93890 | 36939 ft | 492 kts | 88° |
| 2026-05-05 07:17 | 30.91847 | 107.01814 | 36934 ft | 490 kts | 88° |
| 2026-05-05 07:17 | 30.91427 | 107.09736 | 36928 ft | 493 kts | 88° |
| 2026-05-05 07:18 | 30.91001 | 107.17663 | 36934 ft | 492 kts | 88° |
| 2026-05-05 07:18 | 30.90570 | 107.25594 | 36929 ft | 491 kts | 88° |
| 2026-05-05 07:19 | 30.90134 | 107.33530 | 36932 ft | 493 kts | 88° |
| 2026-05-05 07:19 | 30.89693 | 107.41468 | 36935 ft | 491 kts | 88° |
| 2026-05-05 07:20 | 30.89248 | 107.49410 | 36945 ft | 494 kts | 88° |
| 2026-05-05 07:20 | 30.88797 | 107.57348 | 36951 ft | 491 kts | 88° |
| 2026-05-05 07:21 | 30.88340 | 107.65287 | 36947 ft | 491 kts | 88° |
| 2026-05-05 07:21 | 30.87885 | 107.73179 | 36958 ft | 492 kts | 88° |
| 2026-05-05 07:22 | 30.87421 | 107.81142 | 36964 ft | 493 kts | 88° |
| 2026-05-05 07:22 | 30.86950 | 107.89091 | 36970 ft | 494 kts | 88° |
| 2026-05-05 07:23 | 30.86477 | 107.96989 | 36973 ft | 493 kts | 88° |
| 2026-05-05 07:23 | 30.85995 | 108.04933 | 36966 ft | 492 kts | 88° |
| 2026-05-05 07:24 | 30.85511 | 108.12847 | 36966 ft | 493 kts | 88° |
| 2026-05-05 07:24 | 30.85021 | 108.20795 | 36967 ft | 491 kts | 88° |
| 2026-05-05 07:25 | 30.84531 | 108.28668 | 36958 ft | 491 kts | 88° |
| 2026-05-05 07:25 | 30.84035 | 108.36588 | 36969 ft | 494 kts | 88° |
| 2026-05-05 07:26 | 30.83529 | 108.44546 | 36980 ft | 493 kts | 88° |
| 2026-05-05 07:26 | 30.83018 | 108.52483 | 36989 ft | 492 kts | 88° |
| 2026-05-05 07:27 | 30.82506 | 108.60388 | 37012 ft | 494 kts | 88° |
| 2026-05-05 07:27 | 30.81986 | 108.68358 | 37010 ft | 493 kts | 88° |
| 2026-05-05 07:28 | 30.81462 | 108.76328 | 37023 ft | 496 kts | 88° |
| 2026-05-05 07:28 | 30.80934 | 108.84241 | 37026 ft | 494 kts | 88° |
| 2026-05-05 07:29 | 30.80398 | 108.92203 | 37022 ft | 494 kts | 88° |
| 2026-05-05 07:29 | 30.79859 | 109.00175 | 37045 ft | 496 kts | 88° |
| 2026-05-05 07:30 | 30.79311 | 109.08147 | 37039 ft | 494 kts | 88° |
| 2026-05-05 07:30 | 30.78487 | 109.20053 | 37034 ft | 495 kts | 88° |
| 2026-05-05 07:31 | 30.77931 | 109.28017 | 37031 ft | 497 kts | 88° |
| 2026-05-05 07:31 | 30.77368 | 109.35987 | 37059 ft | 497 kts | 88° |
| 2026-05-05 07:32 | 30.76797 | 109.43971 | 37093 ft | 495 kts | 88° |
| 2026-05-05 07:32 | 30.76227 | 109.51918 | 37114 ft | 497 kts | 88° |
| 2026-05-05 07:33 | 30.75649 | 109.59892 | 37104 ft | 496 kts | 88° |
| 2026-05-05 07:33 | 30.75067 | 109.67859 | 37092 ft | 498 kts | 89° |
| 2026-05-05 07:34 | 30.74479 | 109.75867 | 37078 ft | 498 kts | 89° |
| 2026-05-05 07:34 | 30.73884 | 109.83841 | 37081 ft | 497 kts | 88° |
| 2026-05-05 07:35 | 30.73284 | 109.91838 | 37106 ft | 497 kts | 89° |
| 2026-05-05 07:35 | 30.72679 | 109.99850 | 37133 ft | 499 kts | 88° |
| 2026-05-05 07:36 | 30.72066 | 110.07861 | 37125 ft | 497 kts | 88° |
| 2026-05-05 07:36 | 30.71454 | 110.15836 | 37142 ft | 499 kts | 89° |
| 2026-05-05 07:37 | 30.70832 | 110.23860 | 37112 ft | 498 kts | 89° |
| 2026-05-05 07:37 | 30.70207 | 110.31861 | 37126 ft | 499 kts | 89° |
| 2026-05-05 07:38 | 30.69575 | 110.39864 | 37123 ft | 497 kts | 89° |
| 2026-05-05 07:38 | 30.68945 | 110.47849 | 37126 ft | 501 kts | 89° |
| 2026-05-05 07:39 | 30.68302 | 110.55872 | 37110 ft | 496 kts | 89° |
| 2026-05-05 07:39 | 30.67659 | 110.63828 | 37089 ft | 498 kts | 89° |
| 2026-05-05 07:40 | 30.67011 | 110.71844 | 37073 ft | 501 kts | 90° |
| 2026-05-05 07:40 | 30.66351 | 110.79897 | 37054 ft | 498 kts | 89° |
| 2026-05-05 07:41 | 30.65690 | 110.87895 | 37042 ft | 500 kts | 90° |
| 2026-05-05 07:41 | 30.65026 | 110.95886 | 37052 ft | 499 kts | 89° |
| 2026-05-05 07:42 | 30.64357 | 111.03882 | 37033 ft | 501 kts | 90° |
| 2026-05-05 07:42 | 30.63677 | 111.11953 | 37013 ft | 500 kts | 89° |
| 2026-05-05 07:43 | 30.63001 | 111.19929 | 36979 ft | 499 kts | 89° |
| 2026-05-05 07:43 | 30.62839 | 111.27914 | 36944 ft | 493 kts | 80° |
| 2026-05-05 07:44 | 30.63522 | 111.35771 | 36935 ft | 485 kts | 75° |
| 2026-05-05 07:44 | 30.64541 | 111.43514 | 36922 ft | 487 kts | 73° |
| 2026-05-05 07:45 | 30.65512 | 111.51288 | 36916 ft | 489 kts | 77° |
| 2026-05-05 07:45 | 30.66019 | 111.59199 | 36910 ft | 490 kts | 80° |
| 2026-05-05 07:46 | 30.66360 | 111.67139 | 36914 ft | 493 kts | 81° |
| 2026-05-05 07:46 | 30.66692 | 111.75039 | 36910 ft | 492 kts | 81° |
| 2026-05-05 07:47 | 30.67056 | 111.82951 | 36906 ft | 495 kts | 80° |
| 2026-05-05 07:47 | 30.67439 | 111.90914 | 36907 ft | 493 kts | 80° |
| 2026-05-05 07:48 | 30.67836 | 111.98860 | 36907 ft | 492 kts | 79° |
| 2026-05-05 07:48 | 30.68349 | 112.06756 | 36898 ft | 490 kts | 78° |
| 2026-05-05 07:49 | 30.68916 | 112.14641 | 36884 ft | 493 kts | 78° |
| 2026-05-05 07:49 | 30.69480 | 112.22588 | 36904 ft | 490 kts | 79° |
| 2026-05-05 07:50 | 30.70023 | 112.30472 | 36900 ft | 489 kts | 79° |
| 2026-05-05 07:50 | 30.70552 | 112.38348 | 36900 ft | 491 kts | 79° |
| 2026-05-05 07:51 | 30.71075 | 112.46274 | 36912 ft | 491 kts | 79° |
| 2026-05-05 07:51 | 30.71589 | 112.54157 | 36910 ft | 491 kts | 79° |
| 2026-05-05 07:52 | 30.72094 | 112.62021 | 36913 ft | 491 kts | 79° |
| 2026-05-05 07:52 | 30.72600 | 112.69923 | 36908 ft | 491 kts | 80° |
| 2026-05-05 07:53 | 30.73102 | 112.77819 | 36906 ft | 491 kts | 80° |
| 2026-05-05 07:53 | 30.73601 | 112.85759 | 36912 ft | 492 kts | 80° |
| 2026-05-05 07:54 | 30.74092 | 112.93677 | 36921 ft | 491 kts | 80° |
| 2026-05-05 07:54 | 30.74576 | 113.01577 | 36914 ft | 492 kts | 80° |
| 2026-05-05 07:55 | 30.75057 | 113.09471 | 36931 ft | 492 kts | 80° |
| 2026-05-05 07:55 | 30.75509 | 113.17412 | 36922 ft | 492 kts | 82° |
| 2026-05-05 07:56 | 30.75757 | 113.25359 | 36917 ft | 494 kts | 83° |
| 2026-05-05 07:56 | 30.75916 | 113.33333 | 36919 ft | 492 kts | 83° |
| 2026-05-05 07:57 | 30.76073 | 113.41253 | 36921 ft | 493 kts | 83° |
| 2026-05-05 07:57 | 30.76243 | 113.49170 | 36928 ft | 492 kts | 83° |
| 2026-05-05 07:58 | 30.76423 | 113.57098 | 36931 ft | 492 kts | 83° |
| 2026-05-05 07:58 | 30.76607 | 113.65082 | 36941 ft | 493 kts | 84° |
| 2026-05-05 07:59 | 30.76786 | 113.73020 | 36930 ft | 493 kts | 84° |
| 2026-05-05 07:59 | 30.76962 | 113.80949 | 36930 ft | 493 kts | 84° |
| 2026-05-05 08:00 | 30.77132 | 113.88880 | 36949 ft | 492 kts | 84° |
| 2026-05-05 08:00 | 30.77299 | 113.96842 | 36951 ft | 493 kts | 84° |
| 2026-05-05 08:01 | 30.77475 | 114.04758 | 36951 ft | 491 kts | 83° |
| 2026-05-05 08:01 | 30.77775 | 114.12678 | 36948 ft | 491 kts | 82° |
| 2026-05-05 08:02 | 30.78633 | 114.20424 | 36946 ft | 482 kts | 71° |
| 2026-05-05 08:02 | 30.80575 | 114.27846 | 36947 ft | 479 kts | 65° |
| 2026-05-05 08:03 | 30.82925 | 114.35123 | 36953 ft | 478 kts | 63° |
| 2026-05-05 08:03 | 30.85309 | 114.42326 | 36952 ft | 478 kts | 63° |
| 2026-05-05 08:04 | 30.87682 | 114.49560 | 36957 ft | 481 kts | 63° |
| 2026-05-05 08:04 | 30.90052 | 114.56800 | 36951 ft | 478 kts | 64° |
| 2026-05-05 08:05 | 30.92413 | 114.64043 | 36953 ft | 480 kts | 64° |
| 2026-05-05 08:05 | 30.93587 | 114.67662 | 36852 ft | 480 kts | 64° |
| 2026-05-05 08:05 | 30.94765 | 114.71298 | 36941 ft | 481 kts | 65° |
| 2026-05-05 08:06 | 30.97121 | 114.78590 | 36955 ft | 480 kts | 65° |
| 2026-05-05 08:06 | 30.99451 | 114.85834 | 36967 ft | 478 kts | 65° |
| 2026-05-05 08:07 | 31.01793 | 114.93122 | 36949 ft | 480 kts | 65° |
| 2026-05-05 08:07 | 31.04130 | 115.00413 | 36959 ft | 480 kts | 65° |
| 2026-05-05 08:08 | 31.06448 | 115.07666 | 36991 ft | 479 kts | 65° |
| 2026-05-05 08:08 | 31.08770 | 115.14941 | 37011 ft | 482 kts | 65° |
| 2026-05-05 08:09 | 31.11114 | 115.22303 | 37020 ft | 483 kts | 65° |
| 2026-05-05 08:09 | 31.13417 | 115.29587 | 37021 ft | 481 kts | 65° |
| 2026-05-05 08:10 | 31.15766 | 115.36905 | 37021 ft | 483 kts | 65° |
| 2026-05-05 08:10 | 31.18153 | 115.44263 | 37035 ft | 481 kts | 65° |
| 2026-05-05 08:11 | 31.20508 | 115.51531 | 37051 ft | 482 kts | 65° |
| 2026-05-05 08:11 | 31.22864 | 115.58830 | 37056 ft | 481 kts | 65° |
| 2026-05-05 08:12 | 31.25219 | 115.66143 | 37082 ft | 484 kts | 65° |
| 2026-05-05 08:12 | 31.27578 | 115.73495 | 37082 ft | 482 kts | 65° |
| 2026-05-05 08:13 | 31.29925 | 115.80831 | 37078 ft | 483 kts | 66° |
| 2026-05-05 08:13 | 31.32262 | 115.88158 | 37066 ft | 483 kts | 66° |
| 2026-05-05 08:14 | 31.34623 | 115.95480 | 37043 ft | 482 kts | 65° |
| 2026-05-05 08:14 | 31.37018 | 116.02809 | 37031 ft | 483 kts | 65° |
| 2026-05-05 08:15 | 31.39419 | 116.10161 | 37028 ft | 484 kts | 65° |
| 2026-05-05 08:15 | 31.41799 | 116.17474 | 37019 ft | 484 kts | 65° |
| 2026-05-05 08:16 | 31.44182 | 116.24824 | 37022 ft | 484 kts | 65° |
| 2026-05-05 08:16 | 31.46572 | 116.32222 | 37011 ft | 485 kts | 65° |
| 2026-05-05 08:17 | 31.48943 | 116.39579 | 37004 ft | 484 kts | 65° |
| 2026-05-05 08:17 | 31.51308 | 116.46935 | 36998 ft | 486 kts | 65° |
| 2026-05-05 08:18 | 31.53681 | 116.54331 | 36983 ft | 484 kts | 66° |
| 2026-05-05 08:18 | 31.56033 | 116.61685 | 36987 ft | 485 kts | 65° |
| 2026-05-05 08:19 | 31.58401 | 116.69099 | 36992 ft | 486 kts | 66° |
| 2026-05-05 08:19 | 31.60756 | 116.76492 | 36983 ft | 486 kts | 66° |
| 2026-05-05 08:20 | 31.63115 | 116.83921 | 36979 ft | 487 kts | 66° |
| 2026-05-05 08:20 | 31.65471 | 116.91354 | 36981 ft | 486 kts | 66° |
| 2026-05-05 08:21 | 31.67834 | 116.98824 | 36983 ft | 487 kts | 66° |
| 2026-05-05 08:21 | 31.70167 | 117.06258 | 36980 ft | 486 kts | 66° |
| 2026-05-05 08:22 | 31.72469 | 117.13700 | 36981 ft | 487 kts | 67° |
| 2026-05-05 08:22 | 31.74759 | 117.21153 | 36968 ft | 485 kts | 67° |
| 2026-05-05 08:23 | 31.76759 | 117.28738 | 36973 ft | 492 kts | 76° |
| 2026-05-05 08:23 | 31.77214 | 117.36802 | 36972 ft | 496 kts | 90° |
| 2026-05-05 08:24 | 31.76766 | 117.44813 | 36963 ft | 496 kts | 93° |
| 2026-05-05 08:24 | 31.76107 | 117.52917 | 36972 ft | 498 kts | 94° |
| 2026-05-05 08:25 | 31.75452 | 117.60970 | 36972 ft | 497 kts | 94° |
| 2026-05-05 08:25 | 31.74829 | 117.69038 | 36978 ft | 498 kts | 94° |
| 2026-05-05 08:26 | 31.74232 | 117.77122 | 36977 ft | 498 kts | 94° |
| 2026-05-05 08:26 | 31.73644 | 117.85213 | 36981 ft | 499 kts | 94° |
| 2026-05-05 08:27 | 31.73054 | 117.93342 | 37047 ft | 500 kts | 94° |
| 2026-05-05 08:27 | 31.72460 | 118.01489 | 36989 ft | 499 kts | 94° |
| 2026-05-05 08:28 | 31.71864 | 118.09585 | 36894 ft | 502 kts | 94° |
| 2026-05-05 08:28 | 31.71277 | 118.17737 | 37043 ft | 502 kts | 94° |
| 2026-05-05 08:29 | 31.70712 | 118.25898 | 36992 ft | 503 kts | 94° |
| 2026-05-05 08:30 | 31.69859 | 118.38171 | 36987 ft | 501 kts | 94° |
| 2026-05-05 08:30 | 31.69285 | 118.46279 | 37004 ft | 502 kts | 94° |
| 2026-05-05 08:31 | 31.68703 | 118.54420 | 36995 ft | 504 kts | 94° |
| 2026-05-05 08:31 | 31.68113 | 118.62570 | 37001 ft | 504 kts | 94° |
| 2026-05-05 08:32 | 31.67511 | 118.70787 | 37003 ft | 503 kts | 95° |
| 2026-05-05 08:32 | 31.66905 | 118.78970 | 36998 ft | 504 kts | 95° |
| 2026-05-05 08:33 | 31.66295 | 118.87144 | 37000 ft | 503 kts | 95° |
| 2026-05-05 08:33 | 31.64899 | 118.95128 | 36996 ft | 502 kts | 113° |
| 2026-05-05 08:33 | 31.63287 | 118.98780 | 37008 ft | 499 kts | 126° |
| 2026-05-05 08:34 | 31.61162 | 119.01930 | 37002 ft | 493 kts | 137° |
| 2026-05-05 08:34 | 31.56077 | 119.07286 | 36997 ft | 490 kts | 146° |
| 2026-05-05 08:35 | 31.50651 | 119.12103 | 36984 ft | 488 kts | 148° |
| 2026-05-05 08:35 | 31.47890 | 119.14465 | 36856 ft | 486 kts | 148° |
| 2026-05-05 08:35 | 31.45206 | 119.16753 | 36470 ft | 481 kts | 148° |
| 2026-05-05 08:35 | 31.42487 | 119.19074 | 35925 ft | 478 kts | 148° |
| 2026-05-05 08:36 | 31.39817 | 119.21358 | 35256 ft | 479 kts | 148° |
| 2026-05-05 08:36 | 31.37114 | 119.23677 | 34828 ft | 481 kts | 147° |
| 2026-05-05 08:36 | 31.34441 | 119.25977 | 34056 ft | 485 kts | 147° |
| 2026-05-05 08:36 | 31.31688 | 119.28355 | 33312 ft | 487 kts | 147° |
| 2026-05-05 08:37 | 31.28983 | 119.30696 | 32653 ft | 488 kts | 146° |
| 2026-05-05 08:37 | 31.26259 | 119.33058 | 32000 ft | 488 kts | 146° |
| 2026-05-05 08:37 | 31.23533 | 119.35425 | 31388 ft | 486 kts | 146° |
| 2026-05-05 08:37 | 31.20839 | 119.37765 | 30740 ft | 485 kts | 146° |
| 2026-05-05 08:38 | 31.18132 | 119.40116 | 30016 ft | 486 kts | 145° |
| 2026-05-05 08:38 | 31.15436 | 119.42466 | 29239 ft | 487 kts | 145° |
| 2026-05-05 08:38 | 31.12719 | 119.44840 | 28402 ft | 488 kts | 145° |
| 2026-05-05 08:38 | 31.10020 | 119.47203 | 27890 ft | 480 kts | 145° |
| 2026-05-05 08:39 | 31.07357 | 119.49535 | 27246 ft | 477 kts | 144° |
| 2026-05-05 08:39 | 31.04739 | 119.51824 | 26730 ft | 470 kts | 144° |
| 2026-05-05 08:39 | 31.02133 | 119.54100 | 26124 ft | 466 kts | 144° |
| 2026-05-05 08:39 | 30.99557 | 119.56348 | 25523 ft | 462 kts | 144° |
| 2026-05-05 08:40 | 30.96981 | 119.58591 | 24949 ft | 457 kts | 144° |
| 2026-05-05 08:40 | 30.94457 | 119.60788 | 24359 ft | 453 kts | 144° |
| 2026-05-05 08:40 | 30.91936 | 119.62980 | 23725 ft | 449 kts | 144° |
| 2026-05-05 08:40 | 30.89482 | 119.65112 | 23164 ft | 444 kts | 145° |
| 2026-05-05 08:41 | 30.86989 | 119.67276 | 22509 ft | 440 kts | 145° |
| 2026-05-05 08:41 | 30.84567 | 119.69377 | 21888 ft | 436 kts | 145° |
| 2026-05-05 08:41 | 30.82161 | 119.71464 | 21246 ft | 433 kts | 145° |
| 2026-05-05 08:41 | 30.79744 | 119.73558 | 20571 ft | 430 kts | 144° |
| 2026-05-05 08:42 | 30.77357 | 119.75626 | 19956 ft | 426 kts | 144° |
| 2026-05-05 08:42 | 30.75008 | 119.77659 | 19332 ft | 423 kts | 144° |
| 2026-05-05 08:42 | 30.72653 | 119.79697 | 18687 ft | 420 kts | 144° |
| 2026-05-05 08:42 | 30.70312 | 119.81735 | 18081 ft | 416 kts | 144° |
| 2026-05-05 08:43 | 30.68035 | 119.83775 | 17475 ft | 413 kts | 143° |
| 2026-05-05 08:43 | 30.65798 | 119.85822 | 16869 ft | 409 kts | 143° |
| 2026-05-05 08:43 | 30.63534 | 119.87766 | 16273 ft | 405 kts | 147° |
| 2026-05-05 08:43 | 30.61152 | 119.89502 | 15699 ft | 401 kts | 150° |
| 2026-05-05 08:44 | 30.58740 | 119.91074 | 15084 ft | 398 kts | 152° |
| 2026-05-05 08:44 | 30.56297 | 119.92585 | 14482 ft | 394 kts | 153° |
| 2026-05-05 08:44 | 30.53906 | 119.94041 | 13882 ft | 392 kts | 153° |
| 2026-05-05 08:44 | 30.51482 | 119.95524 | 13298 ft | 388 kts | 153° |
| 2026-05-05 08:45 | 30.49113 | 119.96989 | 12699 ft | 385 kts | 152° |
| 2026-05-05 08:45 | 30.46779 | 119.98446 | 12337 ft | 376 kts | 152° |
| 2026-05-05 08:45 | 30.44540 | 119.99856 | 12180 ft | 361 kts | 152° |
| 2026-05-05 08:45 | 30.42358 | 120.01235 | 12038 ft | 346 kts | 152° |
| 2026-05-05 08:46 | 30.40281 | 120.02552 | 11908 ft | 333 kts | 152° |
| 2026-05-05 08:46 | 30.38284 | 120.03820 | 11784 ft | 320 kts | 152° |
| 2026-05-05 08:46 | 30.36373 | 120.05032 | 11689 ft | 308 kts | 152° |
| 2026-05-05 08:46 | 30.34526 | 120.06202 | 11541 ft | 297 kts | 152° |
| 2026-05-05 08:47 | 30.32740 | 120.07331 | 11239 ft | 294 kts | 152° |
| 2026-05-05 08:47 | 30.30942 | 120.08467 | 10876 ft | 293 kts | 152° |
| 2026-05-05 08:47 | 30.29165 | 120.09589 | 10538 ft | 290 kts | 152° |
| 2026-05-05 08:47 | 30.27385 | 120.10713 | 10176 ft | 289 kts | 152° |
| 2026-05-05 08:48 | 30.25630 | 120.11820 | 9841 ft | 287 kts | 152° |
| 2026-05-05 08:48 | 30.23839 | 120.12779 | 9485 ft | 284 kts | 162° |
| 2026-05-05 08:48 | 30.21900 | 120.13065 | 9140 ft | 280 kts | 189° |
| 2026-05-05 08:48 | 30.20096 | 120.12308 | 8820 ft | 274 kts | 214° |
| 2026-05-05 08:49 | 30.18717 | 120.10844 | 8550 ft | 268 kts | 232° |
| 2026-05-05 08:49 | 30.17704 | 120.09087 | 8382 ft | 259 kts | 239° |
| 2026-05-05 08:49 | 30.16630 | 120.07473 | 8187 ft | 251 kts | 218° |
| 2026-05-05 08:49 | 30.15070 | 120.06692 | 7892 ft | 249 kts | 185° |
| 2026-05-05 08:50 | 30.13347 | 120.06983 | 7358 ft | 257 kts | 156° |
| 2026-05-05 08:50 | 30.11780 | 120.07982 | 6853 ft | 262 kts | 141° |
| 2026-05-05 08:50 | 30.10742 | 120.09670 | 6527 ft | 259 kts | 108° |
| 2026-05-05 08:50 | 30.10644 | 120.11738 | 6147 ft | 261 kts | 78° |
| 2026-05-05 08:51 | 30.11378 | 120.13657 | 5758 ft | 264 kts | 59° |
| 2026-05-05 08:51 | 30.12402 | 120.15419 | 5319 ft | 267 kts | 58° |
| 2026-05-05 08:51 | 30.13367 | 120.17261 | 4777 ft | 273 kts | 63° |
| 2026-05-05 08:51 | 30.14255 | 120.19209 | 4280 ft | 277 kts | 65° |
| 2026-05-05 08:52 | 30.15128 | 120.21189 | 3839 ft | 278 kts | 65° |
| 2026-05-05 08:52 | 30.16030 | 120.23195 | 3392 ft | 280 kts | 64° |
| 2026-05-05 08:52 | 30.16900 | 120.25181 | 2964 ft | 280 kts | 66° |
| 2026-05-05 08:52 | 30.17726 | 120.27220 | 2571 ft | 278 kts | 66° |
| 2026-05-05 08:53 | 30.18593 | 120.29207 | 2222 ft | 276 kts | 63° |
| 2026-05-05 08:53 | 30.19487 | 120.31110 | 1838 ft | 259 kts | 64° |
| 2026-05-05 08:53 | 30.20261 | 120.32838 | 1593 ft | 224 kts | 66° |
| 2026-05-05 08:53 | 30.20885 | 120.34256 | 1719 ft | 173 kts | 64° |
| 2026-05-05 08:54 | 30.21491 | 120.35449 | 1685 ft | 172 kts | 65° |
| 2026-05-05 08:54 | 30.21972 | 120.36695 | 1101 ft | 172 kts | 71° |
| 2026-05-05 08:54 | 30.22497 | 120.37848 | 866 ft | 155 kts | 61° |
| 2026-05-05 08:54 | 30.23004 | 120.38960 | 519 ft | 154 kts | 66° |
| 2026-05-05 08:55 | 30.23457 | 120.40015 | 264 ft | 142 kts | 64° |
| 2026-05-05 08:55 | 30.23915 | 120.41051 | 52 ft | 144 kts | 66° |
| 2026-05-05 08:55 | 30.24338 | 120.41992 | 37 ft | 119 kts | 66° |
| 2026-05-05 08:55 | 30.24627 | 120.42655 | 37 ft | 67 kts | 62° |
| 2026-05-05 08:56 | 30.24721 | 120.42982 | 37 ft | 19 kts | 87° |
| 2026-05-05 08:56 | 30.24722 | 120.43056 | 37 ft | 0 kts | 90° |
| 2026-05-05 08:56 | 30.24722 | 120.43096 | 37 ft | 12 kts | 90° |
| 2026-05-05 08:56 | 30.24661 | 120.43138 | 37 ft | 11 kts | 207° |
| 2026-05-05 08:57 | 30.24616 | 120.43062 | 36 ft | 11 kts | 242° |
| 2026-05-05 08:57 | 30.24582 | 120.42984 | 37 ft | 10 kts | 242° |
| 2026-05-05 08:57 | 30.24526 | 120.42952 | 37 ft | 9 kts | 169° |
| 2026-05-05 08:57 | 30.24470 | 120.42981 | 37 ft | 8 kts | 152° |
| 2026-05-05 08:58 | 30.24420 | 120.43014 | 37 ft | 8 kts | 149° |
| 2026-05-05 08:58 | 30.24369 | 120.43046 | 36 ft | 8 kts | 152° |
| 2026-05-05 08:58 | 30.24348 | 120.43059 | 36 ft | 3 kts | 153° |
| 2026-05-05 08:58 | 30.24339 | 120.43063 | 36 ft | 0 kts | 153° |